Terminal Aerodrome Forecast
Issued by NWS

Current Version | Previous Version | Text Only | Print | Product List | Glossary Off
Versions: 1 2 3 4 5 6 7 8 9 10 11 12 13 14 15 16 17 18 19 20 21 22 23 24 25 26 27 28 29 30 31 32 33 34

000
FTUS41 KRNK 102339
TAFLWB
TAF
KLWB 102339Z 1100/1124 26006KT P6SM FEW100
     FM110600 27009G17KT P6SM FEW045
     FM111600 25008KT P6SM SCT250
     FM112100 22004KT P6SM SCT100=

USA.gov is the U.S. government's official web portal to all federal, state and local government web resources and services.